sensor_id;sensor_type;location;lat;lon;timestamp;temperature;humidity
21199;DHT22;10757;51.038;3.712;2022-07-23T00:02:10;18.00;99.90
21199;DHT22;10757;51.038;3.712;2022-07-23T00:04:36;18.10;99.90
21199;DHT22;10757;51.038;3.712;2022-07-23T00:07:02;18.00;99.90
21199;DHT22;10757;51.038;3.712;2022-07-23T00:09:28;18.00;99.90
21199;DHT22;10757;51.038;3.712;2022-07-23T00:11:56;18.10;99.90
21199;DHT22;10757;51.038;3.712;2022-07-23T00:14:25;18.10;99.90
21199;DHT22;10757;51.038;3.712;2022-07-23T00:16:50;18.00;99.90
21199;DHT22;10757;51.038;3.712;2022-07-23T00:19:16;18.00;99.90
21199;DHT22;10757;51.038;3.712;2022-07-23T00:21:42;18.10;99.90
21199;DHT22;10757;51.038;3.712;2022-07-23T00:24:08;18.00;99.90
21199;DHT22;10757;51.038;3.712;2022-07-23T00:26:33;17.80;99.90
21199;DHT22;10757;51.038;3.712;2022-07-23T00:28:59;17.80;99.90
21199;DHT22;10757;51.038;3.712;2022-07-23T00:31:25;17.70;99.90
21199;DHT22;10757;51.038;3.712;2022-07-23T00:33:50;17.80;99.90
21199;DHT22;10757;51.038;3.712;2022-07-23T00:36:16;17.90;99.90
21199;DHT22;10757;51.038;3.712;2022-07-23T00:38:42;17.80;99.90
21199;DHT22;10757;51.038;3.712;2022-07-23T00:41:08;17.90;99.90
21199;DHT22;10757;51.038;3.712;2022-07-23T00:43:33;17.80;99.90
21199;DHT22;10757;51.038;3.712;2022-07-23T00:45:59;17.70;99.90
21199;DHT22;10757;51.038;3.712;2022-07-23T00:48:25;17.70;99.90
21199;DHT22;10757;51.038;3.712;2022-07-23T00:50:51;17.60;99.90
21199;DHT22;10757;51.038;3.712;2022-07-23T00:53:16;17.60;99.90
21199;DHT22;10757;51.038;3.712;2022-07-23T00:55:42;17.60;99.90
21199;DHT22;10757;51.038;3.712;2022-07-23T00:58:09;17.60;99.90
21199;DHT22;10757;51.038;3.712;2022-07-23T01:00:35;17.60;99.90
21199;DHT22;10757;51.038;3.712;2022-07-23T01:03:00;17.50;99.90
21199;DHT22;10757;51.038;3.712;2022-07-23T01:05:26;17.50;99.90
21199;DHT22;10757;51.038;3.712;2022-07-23T01:07:52;17.50;99.90
21199;DHT22;10757;51.038;3.712;2022-07-23T01:10:18;17.70;99.90
21199;DHT22;10757;51.038;3.712;2022-07-23T01:13:07;17.60;99.90
21199;DHT22;10757;51.038;3.712;2022-07-23T01:15:35;17.50;99.90
21199;DHT22;10757;51.038;3.712;2022-07-23T01:18:01;17.40;99.90
21199;DHT22;10757;51.038;3.712;2022-07-23T01:20:27;17.40;99.90
21199;DHT22;10757;51.038;3.712;2022-07-23T01:22:53;17.40;99.90
21199;DHT22;10757;51.038;3.712;2022-07-23T01:25:20;17.50;99.90
21199;DHT22;10757;51.038;3.712;2022-07-23T01:27:47;17.80;99.90
21199;DHT22;10757;51.038;3.712;2022-07-23T01:30:13;18.00;99.90
21199;DHT22;10757;51.038;3.712;2022-07-23T01:32:39;17.90;99.90
21199;DHT22;10757;51.038;3.712;2022-07-23T01:35:06;17.70;99.90
21199;DHT22;10757;51.038;3.712;2022-07-23T01:37:32;17.40;99.90
21199;DHT22;10757;51.038;3.712;2022-07-23T01:39:57;17.50;99.90
21199;DHT22;10757;51.038;3.712;2022-07-23T01:42:23;17.40;99.90
21199;DHT22;10757;51.038;3.712;2022-07-23T01:44:49;17.40;99.90
21199;DHT22;10757;51.038;3.712;2022-07-23T01:47:15;17.20;99.90
21199;DHT22;10757;51.038;3.712;2022-07-23T01:49:40;17.10;99.90
21199;DHT22;10757;51.038;3.712;2022-07-23T01:52:06;17.00;99.90
21199;DHT22;10757;51.038;3.712;2022-07-23T01:54:37;16.90;99.90
21199;DHT22;10757;51.038;3.712;2022-07-23T01:57:04;16.90;99.90
21199;DHT22;10757;51.038;3.712;2022-07-23T01:59:30;17.10;99.90
21199;DHT22;10757;51.038;3.712;2022-07-23T02:01:56;17.30;99.90
21199;DHT22;10757;51.038;3.712;2022-07-23T02:04:23;17.40;99.90
21199;DHT22;10757;51.038;3.712;2022-07-23T02:06:50;17.60;99.90
21199;DHT22;10757;51.038;3.712;2022-07-23T02:09:16;17.70;99.90
21199;DHT22;10757;51.038;3.712;2022-07-23T02:11:42;17.70;99.90
21199;DHT22;10757;51.038;3.712;2022-07-23T02:14:08;17.60;99.90
21199;DHT22;10757;51.038;3.712;2022-07-23T02:16:33;17.40;99.90
21199;DHT22;10757;51.038;3.712;2022-07-23T02:18:59;17.30;99.90
21199;DHT22;10757;51.038;3.712;2022-07-23T02:21:25;17.10;99.90
21199;DHT22;10757;51.038;3.712;2022-07-23T02:23:51;17.30;99.90
21199;DHT22;10757;51.038;3.712;2022-07-23T02:26:16;17.20;99.90
21199;DHT22;10757;51.038;3.712;2022-07-23T02:28:42;17.30;99.90
21199;DHT22;10757;51.038;3.712;2022-07-23T02:31:08;17.40;99.90
21199;DHT22;10757;51.038;3.712;2022-07-23T02:33:33;17.20;99.90
21199;DHT22;10757;51.038;3.712;2022-07-23T02:35:59;17.00;99.90
21199;DHT22;10757;51.038;3.712;2022-07-23T02:38:25;17.00;99.90
21199;DHT22;10757;51.038;3.712;2022-07-23T02:40:51;17.10;99.90
21199;DHT22;10757;51.038;3.712;2022-07-23T02:43:17;17.20;99.90
21199;DHT22;10757;51.038;3.712;2022-07-23T02:45:43;17.30;99.90
21199;DHT22;10757;51.038;3.712;2022-07-23T02:48:08;17.40;99.90
21199;DHT22;10757;51.038;3.712;2022-07-23T02:50:34;17.30;99.90
21199;DHT22;10757;51.038;3.712;2022-07-23T02:53:00;17.40;99.90
21199;DHT22;10757;51.038;3.712;2022-07-23T02:55:26;17.20;99.90
21199;DHT22;10757;51.038;3.712;2022-07-23T02:57:51;17.20;99.90
21199;DHT22;10757;51.038;3.712;2022-07-23T03:00:18;17.10;99.90
21199;DHT22;10757;51.038;3.712;2022-07-23T03:02:44;17.00;99.90
21199;DHT22;10757;51.038;3.712;2022-07-23T03:05:09;17.00;99.90
21199;DHT22;10757;51.038;3.712;2022-07-23T03:07:35;17.10;99.90
21199;DHT22;10757;51.038;3.712;2022-07-23T03:10:01;17.10;99.90
21199;DHT22;10757;51.038;3.712;2022-07-23T03:12:28;17.30;99.90
21199;DHT22;10757;51.038;3.712;2022-07-23T03:14:53;17.50;99.90
21199;DHT22;10757;51.038;3.712;2022-07-23T03:17:19;17.40;99.90
21199;DHT22;10757;51.038;3.712;2022-07-23T03:19:45;17.30;99.90
21199;DHT22;10757;51.038;3.712;2022-07-23T03:22:10;17.40;99.90
21199;DHT22;10757;51.038;3.712;2022-07-23T03:24:36;17.30;99.90
21199;DHT22;10757;51.038;3.712;2022-07-23T03:27:30;17.40;99.90
21199;DHT22;10757;51.038;3.712;2022-07-23T03:29:58;17.10;99.90
21199;DHT22;10757;51.038;3.712;2022-07-23T03:32:24;16.90;99.90
21199;DHT22;10757;51.038;3.712;2022-07-23T03:34:50;16.80;99.90
21199;DHT22;10757;51.038;3.712;2022-07-23T03:37:17;16.70;99.90
21199;DHT22;10757;51.038;3.712;2022-07-23T03:39:43;16.60;99.90
21199;DHT22;10757;51.038;3.712;2022-07-23T03:42:09;16.60;99.90
21199;DHT22;10757;51.038;3.712;2022-07-23T03:44:35;16.60;99.90
21199;DHT22;10757;51.038;3.712;2022-07-23T03:47:03;16.50;99.90
21199;DHT22;10757;51.038;3.712;2022-07-23T03:49:29;16.60;99.90
21199;DHT22;10757;51.038;3.712;2022-07-23T03:51:54;16.60;99.90
21199;DHT22;10757;51.038;3.712;2022-07-23T03:54:20;16.70;99.90
21199;DHT22;10757;51.038;3.712;2022-07-23T03:56:46;16.80;99.90
21199;DHT22;10757;51.038;3.712;2022-07-23T03:59:12;16.70;99.90
21199;DHT22;10757;51.038;3.712;2022-07-23T04:01:37;16.70;99.90
21199;DHT22;10757;51.038;3.712;2022-07-23T04:04:03;16.70;99.90
21199;DHT22;10757;51.038;3.712;2022-07-23T04:06:29;16.60;99.90
21199;DHT22;10757;51.038;3.712;2022-07-23T04:08:55;16.60;99.90
21199;DHT22;10757;51.038;3.712;2022-07-23T04:11:20;16.60;99.90
21199;DHT22;10757;51.038;3.712;2022-07-23T04:13:46;16.70;99.90
21199;DHT22;10757;51.038;3.712;2022-07-23T04:16:12;16.60;99.90
21199;DHT22;10757;51.038;3.712;2022-07-23T04:18:37;16.60;99.90
21199;DHT22;10757;51.038;3.712;2022-07-23T04:21:03;16.60;99.90
21199;DHT22;10757;51.038;3.712;2022-07-23T04:23:29;16.80;99.90
21199;DHT22;10757;51.038;3.712;2022-07-23T04:25:55;16.80;99.90
21199;DHT22;10757;51.038;3.712;2022-07-23T04:28:20;16.90;99.90
21199;DHT22;10757;51.038;3.712;2022-07-23T04:30:46;16.90;99.90
21199;DHT22;10757;51.038;3.712;2022-07-23T04:33:12;16.80;99.90
21199;DHT22;10757;51.038;3.712;2022-07-23T04:35:38;16.80;99.90
21199;DHT22;10757;51.038;3.712;2022-07-23T04:38:04;16.70;99.90
21199;DHT22;10757;51.038;3.712;2022-07-23T04:40:30;16.90;99.90
21199;DHT22;10757;51.038;3.712;2022-07-23T04:42:57;17.00;99.90
21199;DHT22;10757;51.038;3.712;2022-07-23T04:45:26;17.10;99.90
21199;DHT22;10757;51.038;3.712;2022-07-23T04:47:52;17.10;99.90
21199;DHT22;10757;51.038;3.712;2022-07-23T04:50:17;17.10;99.90
21199;DHT22;10757;51.038;3.712;2022-07-23T04:52:47;17.10;99.90
21199;DHT22;10757;51.038;3.712;2022-07-23T04:55:13;17.20;99.90
21199;DHT22;10757;51.038;3.712;2022-07-23T04:57:39;17.10;99.90
21199;DHT22;10757;51.038;3.712;2022-07-23T05:00:06;17.10;99.90
21199;DHT22;10757;51.038;3.712;2022-07-23T05:02:31;17.20;99.90
21199;DHT22;10757;51.038;3.712;2022-07-23T05:04:57;17.50;99.90
21199;DHT22;10757;51.038;3.712;2022-07-23T05:07:23;18.00;99.90
21199;DHT22;10757;51.038;3.712;2022-07-23T05:09:49;18.50;99.90
21199;DHT22;10757;51.038;3.712;2022-07-23T05:12:15;18.80;99.90
21199;DHT22;10757;51.038;3.712;2022-07-23T05:14:41;19.00;99.90
21199;DHT22;10757;51.038;3.712;2022-07-23T05:17:08;19.30;99.90
21199;DHT22;10757;51.038;3.712;2022-07-23T05:19:34;19.50;99.90
21199;DHT22;10757;51.038;3.712;2022-07-23T05:22:00;19.70;99.90
21199;DHT22;10757;51.038;3.712;2022-07-23T05:24:26;19.90;99.90
21199;DHT22;10757;51.038;3.712;2022-07-23T05:26:52;20.00;99.90
21199;DHT22;10757;51.038;3.712;2022-07-23T05:29:17;20.20;99.90
21199;DHT22;10757;51.038;3.712;2022-07-23T05:31:43;20.20;99.90
21199;DHT22;10757;51.038;3.712;2022-07-23T05:34:09;20.10;99.90
21199;DHT22;10757;51.038;3.712;2022-07-23T05:36:35;20.10;99.90
21199;DHT22;10757;51.038;3.712;2022-07-23T05:39:01;20.10;99.90
21199;DHT22;10757;51.038;3.712;2022-07-23T05:41:27;20.20;99.90
21199;DHT22;10757;51.038;3.712;2022-07-23T05:43:52;20.40;99.90
21199;DHT22;10757;51.038;3.712;2022-07-23T05:46:18;20.60;99.90
21199;DHT22;10757;51.038;3.712;2022-07-23T05:48:44;20.80;99.90
21199;DHT22;10757;51.038;3.712;2022-07-23T05:51:22;20.80;99.90
21199;DHT22;10757;51.038;3.712;2022-07-23T05:53:48;20.90;99.90
21199;DHT22;10757;51.038;3.712;2022-07-23T05:56:14;21.00;99.90
21199;DHT22;10757;51.038;3.712;2022-07-23T05:58:40;21.10;99.90
21199;DHT22;10757;51.038;3.712;2022-07-23T06:01:06;21.10;99.90
21199;DHT22;10757;51.038;3.712;2022-07-23T06:03:31;21.20;99.90
21199;DHT22;10757;51.038;3.712;2022-07-23T06:05:57;21.20;99.90
21199;DHT22;10757;51.038;3.712;2022-07-23T06:08:22;20.90;99.90
21199;DHT22;10757;51.038;3.712;2022-07-23T06:10:48;20.60;99.90
21199;DHT22;10757;51.038;3.712;2022-07-23T06:13:14;20.50;99.90
21199;DHT22;10757;51.038;3.712;2022-07-23T06:15:39;20.10;99.90
21199;DHT22;10757;51.038;3.712;2022-07-23T06:18:05;20.10;99.90
21199;DHT22;10757;51.038;3.712;2022-07-23T06:20:31;20.00;99.90
21199;DHT22;10757;51.038;3.712;2022-07-23T06:22:56;19.80;99.90
21199;DHT22;10757;51.038;3.712;2022-07-23T06:25:22;19.70;99.90
21199;DHT22;10757;51.038;3.712;2022-07-23T06:27:48;19.70;99.90
21199;DHT22;10757;51.038;3.712;2022-07-23T06:30:15;19.70;99.90
21199;DHT22;10757;51.038;3.712;2022-07-23T06:32:45;19.80;99.90
21199;DHT22;10757;51.038;3.712;2022-07-23T06:35:11;19.80;99.90
21199;DHT22;10757;51.038;3.712;2022-07-23T06:37:36;19.80;99.90
21199;DHT22;10757;51.038;3.712;2022-07-23T06:40:03;19.80;99.90
21199;DHT22;10757;51.038;3.712;2022-07-23T06:42:28;19.80;99.90
21199;DHT22;10757;51.038;3.712;2022-07-23T06:44:54;19.80;99.90
21199;DHT22;10757;51.038;3.712;2022-07-23T06:47:20;19.80;99.90
21199;DHT22;10757;51.038;3.712;2022-07-23T06:49:45;19.80;99.90
21199;DHT22;10757;51.038;3.712;2022-07-23T06:52:11;19.90;99.90
21199;DHT22;10757;51.038;3.712;2022-07-23T06:54:37;19.80;99.90
21199;DHT22;10757;51.038;3.712;2022-07-23T06:57:03;20.10;99.90
21199;DHT22;10757;51.038;3.712;2022-07-23T06:59:28;20.20;99.90
21199;DHT22;10757;51.038;3.712;2022-07-23T07:01:54;20.20;99.90
21199;DHT22;10757;51.038;3.712;2022-07-23T07:04:20;20.30;99.90
21199;DHT22;10757;51.038;3.712;2022-07-23T07:06:46;20.20;99.90
21199;DHT22;10757;51.038;3.712;2022-07-23T07:09:11;20.30;99.90
21199;DHT22;10757;51.038;3.712;2022-07-23T07:11:38;20.20;99.90
21199;DHT22;10757;51.038;3.712;2022-07-23T07:14:04;20.10;99.90
21199;DHT22;10757;51.038;3.712;2022-07-23T07:16:30;20.10;99.90
21199;DHT22;10757;51.038;3.712;2022-07-23T07:18:56;20.20;99.90
21199;DHT22;10757;51.038;3.712;2022-07-23T07:21:21;20.30;99.90
21199;DHT22;10757;51.038;3.712;2022-07-23T07:23:47;20.30;99.90
21199;DHT22;10757;51.038;3.712;2022-07-23T07:26:13;20.50;99.90
21199;DHT22;10757;51.038;3.712;2022-07-23T07:28:39;20.60;99.90
21199;DHT22;10757;51.038;3.712;2022-07-23T07:31:05;20.70;99.90
21199;DHT22;10757;51.038;3.712;2022-07-23T07:33:32;20.80;99.90
21199;DHT22;10757;51.038;3.712;2022-07-23T07:35:57;20.70;99.90
21199;DHT22;10757;51.038;3.712;2022-07-23T07:38:24;20.80;99.90
21199;DHT22;10757;51.038;3.712;2022-07-23T07:40:49;21.10;99.90
21199;DHT22;10757;51.038;3.712;2022-07-23T07:43:15;21.20;99.90
21199;DHT22;10757;51.038;3.712;2022-07-23T07:45:45;21.60;99.90
21199;DHT22;10757;51.038;3.712;2022-07-23T07:48:12;21.90;99.90
21199;DHT22;10757;51.038;3.712;2022-07-23T07:50:37;22.10;99.90
21199;DHT22;10757;51.038;3.712;2022-07-23T07:53:03;22.20;99.90
21199;DHT22;10757;51.038;3.712;2022-07-23T07:55:29;22.50;99.90
21199;DHT22;10757;51.038;3.712;2022-07-23T07:57:55;22.50;99.90
21199;DHT22;10757;51.038;3.712;2022-07-23T08:00:21;22.40;99.90
21199;DHT22;10757;51.038;3.712;2022-07-23T08:02:52;22.50;99.90
21199;DHT22;10757;51.038;3.712;2022-07-23T08:05:25;22.60;99.90
21199;DHT22;10757;51.038;3.712;2022-07-23T08:07:51;22.40;99.90
21199;DHT22;10757;51.038;3.712;2022-07-23T08:10:17;22.60;99.90
21199;DHT22;10757;51.038;3.712;2022-07-23T08:12:47;22.90;99.90
21199;DHT22;10757;51.038;3.712;2022-07-23T08:15:14;23.30;99.90
21199;DHT22;10757;51.038;3.712;2022-07-23T08:17:41;23.50;99.90
21199;DHT22;10757;51.038;3.712;2022-07-23T08:20:37;23.50;99.90
21199;DHT22;10757;51.038;3.712;2022-07-23T08:23:05;23.70;99.90
21199;DHT22;10757;51.038;3.712;2022-07-23T08:25:35;23.90;99.90
21199;DHT22;10757;51.038;3.712;2022-07-23T08:28:02;24.00;99.90
21199;DHT22;10757;51.038;3.712;2022-07-23T08:30:29;24.00;99.90
21199;DHT22;10757;51.038;3.712;2022-07-23T08:33:02;24.00;99.90
21199;DHT22;10757;51.038;3.712;2022-07-23T08:35:34;24.00;99.90
21199;DHT22;10757;51.038;3.712;2022-07-23T08:38:03;24.10;99.90
21199;DHT22;10757;51.038;3.712;2022-07-23T08:40:35;24.20;99.90
21199;DHT22;10757;51.038;3.712;2022-07-23T08:43:04;24.30;99.90
21199;DHT22;10757;51.038;3.712;2022-07-23T08:45:30;24.40;99.90
21199;DHT22;10757;51.038;3.712;2022-07-23T08:48:03;24.40;99.90
21199;DHT22;10757;51.038;3.712;2022-07-23T08:50:30;24.40;99.90
21199;DHT22;10757;51.038;3.712;2022-07-23T08:52:59;24.40;99.90
21199;DHT22;10757;51.038;3.712;2022-07-23T08:55:26;24.40;99.90
21199;DHT22;10757;51.038;3.712;2022-07-23T08:57:54;24.30;99.90
21199;DHT22;10757;51.038;3.712;2022-07-23T09:00:21;24.20;99.90
21199;DHT22;10757;51.038;3.712;2022-07-23T09:02:47;24.00;99.90
21199;DHT22;10757;51.038;3.712;2022-07-23T09:05:17;23.60;99.90
21199;DHT22;10757;51.038;3.712;2022-07-23T09:08:12;23.90;99.90
21199;DHT22;10757;51.038;3.712;2022-07-23T09:10:57;24.00;99.90
21199;DHT22;10757;51.038;3.712;2022-07-23T09:15:55;23.80;99.90
21199;DHT22;10757;51.038;3.712;2022-07-23T09:18:36;23.80;99.90
21199;DHT22;10757;51.038;3.712;2022-07-23T09:24:02;24.40;99.90
21199;DHT22;10757;51.038;3.712;2022-07-23T09:26:36;24.60;99.90
21199;DHT22;10757;51.038;3.712;2022-07-23T09:29:13;24.80;99.90
21199;DHT22;10757;51.038;3.712;2022-07-23T09:31:55;24.80;99.90
21199;DHT22;10757;51.038;3.712;2022-07-23T09:34:26;24.80;99.90
21199;DHT22;10757;51.038;3.712;2022-07-23T09:36:57;24.90;99.90
21199;DHT22;10757;51.038;3.712;2022-07-23T09:39:32;25.10;99.90
21199;DHT22;10757;51.038;3.712;2022-07-23T09:42:23;25.20;99.90
21199;DHT22;10757;51.038;3.712;2022-07-23T09:44:55;25.10;99.90
21199;DHT22;10757;51.038;3.712;2022-07-23T09:47:27;25.10;99.90
21199;DHT22;10757;51.038;3.712;2022-07-23T09:50:08;25.20;99.90
21199;DHT22;10757;51.038;3.712;2022-07-23T09:52:54;25.20;99.90
21199;DHT22;10757;51.038;3.712;2022-07-23T09:55:31;25.60;99.90
21199;DHT22;10757;51.038;3.712;2022-07-23T09:58:01;25.40;99.90
21199;DHT22;10757;51.038;3.712;2022-07-23T10:00:27;25.20;99.90
21199;DHT22;10757;51.038;3.712;2022-07-23T10:02:53;25.60;99.90
21199;DHT22;10757;51.038;3.712;2022-07-23T10:05:20;25.80;99.90
21199;DHT22;10757;51.038;3.712;2022-07-23T10:07:46;26.00;99.90
21199;DHT22;10757;51.038;3.712;2022-07-23T10:10:14;26.10;99.90
21199;DHT22;10757;51.038;3.712;2022-07-23T10:12:45;25.90;99.90
21199;DHT22;10757;51.038;3.712;2022-07-23T10:15:17;25.70;99.90
21199;DHT22;10757;51.038;3.712;2022-07-23T10:17:43;25.70;99.90
21199;DHT22;10757;51.038;3.712;2022-07-23T10:20:09;25.70;99.90
21199;DHT22;10757;51.038;3.712;2022-07-23T10:22:42;25.90;99.90
21199;DHT22;10757;51.038;3.712;2022-07-23T10:25:59;25.90;99.90
21199;DHT22;10757;51.038;3.712;2022-07-23T10:31:08;25.30;99.90
21199;DHT22;10757;51.038;3.712;2022-07-23T10:36:57;25.30;99.90
21199;DHT22;10757;51.038;3.712;2022-07-23T10:39:27;25.30;99.90
21199;DHT22;10757;51.038;3.712;2022-07-23T10:42:11;25.30;99.90
21199;DHT22;10757;51.038;3.712;2022-07-23T10:44:42;25.10;99.90
21199;DHT22;10757;51.038;3.712;2022-07-23T10:47:09;25.30;99.90
21199;DHT22;10757;51.038;3.712;2022-07-23T10:50:37;25.20;99.90
21199;DHT22;10757;51.038;3.712;2022-07-23T10:58:01;25.70;99.90
21199;DHT22;10757;51.038;3.712;2022-07-23T11:00:29;26.00;99.90
21199;DHT22;10757;51.038;3.712;2022-07-23T11:03:00;26.10;99.90
21199;DHT22;10757;51.038;3.712;2022-07-23T11:05:43;26.10;99.90
21199;DHT22;10757;51.038;3.712;2022-07-23T11:08:10;26.00;99.90
21199;DHT22;10757;51.038;3.712;2022-07-23T11:10:38;26.00;99.90
21199;DHT22;10757;51.038;3.712;2022-07-23T11:16:18;26.10;99.90
21199;DHT22;10757;51.038;3.712;2022-07-23T11:23:59;26.30;99.90
21199;DHT22;10757;51.038;3.712;2022-07-23T11:32:22;26.60;99.90
21199;DHT22;10757;51.038;3.712;2022-07-23T11:34:49;26.70;99.90
21199;DHT22;10757;51.038;3.712;2022-07-23T11:37:38;26.50;99.90
21199;DHT22;10757;51.038;3.712;2022-07-23T11:40:12;26.00;99.90
21199;DHT22;10757;51.038;3.712;2022-07-23T11:42:39;25.90;99.90
21199;DHT22;10757;51.038;3.712;2022-07-23T11:45:07;25.80;99.90
21199;DHT22;10757;51.038;3.712;2022-07-23T11:47:33;25.70;99.90
21199;DHT22;10757;51.038;3.712;2022-07-23T11:50:02;26.00;99.90
21199;DHT22;10757;51.038;3.712;2022-07-23T11:52:28;26.30;99.90
21199;DHT22;10757;51.038;3.712;2022-07-23T11:55:00;26.50;99.90
21199;DHT22;10757;51.038;3.712;2022-07-23T11:57:32;26.60;99.80
21199;DHT22;10757;51.038;3.712;2022-07-23T12:02:37;26.40;99.70
21199;DHT22;10757;51.038;3.712;2022-07-23T12:05:04;26.40;99.30
21199;DHT22;10757;51.038;3.712;2022-07-23T12:07:37;26.20;99.40
21199;DHT22;10757;51.038;3.712;2022-07-23T12:12:58;27.10;98.30
21199;DHT22;10757;51.038;3.712;2022-07-23T12:15:33;27.40;97.70
21199;DHT22;10757;51.038;3.712;2022-07-23T12:18:01;27.50;97.20
21199;DHT22;10757;51.038;3.712;2022-07-23T12:20:31;27.70;96.80
21199;DHT22;10757;51.038;3.712;2022-07-23T12:23:03;27.70;97.10
21199;DHT22;10757;51.038;3.712;2022-07-23T12:25:31;27.90;97.10
21199;DHT22;10757;51.038;3.712;2022-07-23T12:28:19;28.10;97.40
21199;DHT22;10757;51.038;3.712;2022-07-23T12:30:50;28.60;96.70
21199;DHT22;10757;51.038;3.712;2022-07-23T12:35:57;29.10;95.00
21199;DHT22;10757;51.038;3.712;2022-07-23T12:38:24;28.90;94.90
21199;DHT22;10757;51.038;3.712;2022-07-23T12:40:52;28.70;95.10
21199;DHT22;10757;51.038;3.712;2022-07-23T12:43:23;28.40;95.50
21199;DHT22;10757;51.038;3.712;2022-07-23T12:46:16;28.30;95.60
21199;DHT22;10757;51.038;3.712;2022-07-23T12:51:25;28.60;95.30
21199;DHT22;10757;51.038;3.712;2022-07-23T12:53:53;28.30;95.30
21199;DHT22;10757;51.038;3.712;2022-07-23T12:56:39;28.30;95.60
21199;DHT22;10757;51.038;3.712;2022-07-23T12:59:11;28.50;95.40
21199;DHT22;10757;51.038;3.712;2022-07-23T13:01:40;28.90;94.90
21199;DHT22;10757;51.038;3.712;2022-07-23T13:04:14;28.90;94.70
21199;DHT22;10757;51.038;3.712;2022-07-23T13:09:22;29.00;94.80
21199;DHT22;10757;51.038;3.712;2022-07-23T13:11:49;29.00;94.20
21199;DHT22;10757;51.038;3.712;2022-07-23T13:14:16;29.10;94.10
21199;DHT22;10757;51.038;3.712;2022-07-23T13:16:43;29.00;94.20
21199;DHT22;10757;51.038;3.712;2022-07-23T13:19:12;28.70;94.90
21199;DHT22;10757;51.038;3.712;2022-07-23T13:21:39;28.90;94.30
21199;DHT22;10757;51.038;3.712;2022-07-23T13:24:06;29.00;93.90
21199;DHT22;10757;51.038;3.712;2022-07-23T13:26:32;29.00;93.90
21199;DHT22;10757;51.038;3.712;2022-07-23T13:28:58;29.10;93.90
21199;DHT22;10757;51.038;3.712;2022-07-23T13:31:24;29.20;93.50
21199;DHT22;10757;51.038;3.712;2022-07-23T13:33:50;29.30;93.40
21199;DHT22;10757;51.038;3.712;2022-07-23T13:36:15;29.20;93.70
21199;DHT22;10757;51.038;3.712;2022-07-23T13:38:41;29.20;93.90
21199;DHT22;10757;51.038;3.712;2022-07-23T13:41:07;29.10;93.80
21199;DHT22;10757;51.038;3.712;2022-07-23T13:43:33;29.50;93.00
21199;DHT22;10757;51.038;3.712;2022-07-23T13:45:59;29.40;93.00
21199;DHT22;10757;51.038;3.712;2022-07-23T13:48:24;29.30;93.10
21199;DHT22;10757;51.038;3.712;2022-07-23T13:50:51;29.00;93.40
21199;DHT22;10757;51.038;3.712;2022-07-23T13:53:23;29.20;93.50
21199;DHT22;10757;51.038;3.712;2022-07-23T13:55:51;29.20;93.40
21199;DHT22;10757;51.038;3.712;2022-07-23T13:58:19;29.30;93.20
21199;DHT22;10757;51.038;3.712;2022-07-23T14:00:51;29.60;93.10
21199;DHT22;10757;51.038;3.712;2022-07-23T14:03:17;29.30;92.90
21199;DHT22;10757;51.038;3.712;2022-07-23T14:05:43;29.50;92.70
21199;DHT22;10757;51.038;3.712;2022-07-23T14:08:09;29.70;92.30
21199;DHT22;10757;51.038;3.712;2022-07-23T14:10:35;29.80;92.20
21199;DHT22;10757;51.038;3.712;2022-07-23T14:13:06;29.70;92.00
21199;DHT22;10757;51.038;3.712;2022-07-23T14:15:32;29.50;92.60
21199;DHT22;10757;51.038;3.712;2022-07-23T14:17:58;29.70;92.50
21199;DHT22;10757;51.038;3.712;2022-07-23T14:20:24;29.80;91.90
21199;DHT22;10757;51.038;3.712;2022-07-23T14:22:50;29.70;92.30
21199;DHT22;10757;51.038;3.712;2022-07-23T14:27:50;29.60;92.40
21199;DHT22;10757;51.038;3.712;2022-07-23T14:30:16;29.50;92.60
21199;DHT22;10757;51.038;3.712;2022-07-23T14:32:42;29.60;93.00
21199;DHT22;10757;51.038;3.712;2022-07-23T14:35:08;29.90;91.70
21199;DHT22;10757;51.038;3.712;2022-07-23T14:37:34;30.10;91.50
21199;DHT22;10757;51.038;3.712;2022-07-23T14:40:00;30.10;91.60
21199;DHT22;10757;51.038;3.712;2022-07-23T14:42:27;30.40;91.50
21199;DHT22;10757;51.038;3.712;2022-07-23T14:44:53;30.70;90.00
21199;DHT22;10757;51.038;3.712;2022-07-23T14:47:18;30.80;90.10
21199;DHT22;10757;51.038;3.712;2022-07-23T14:49:44;30.70;90.20
21199;DHT22;10757;51.038;3.712;2022-07-23T14:52:10;30.60;90.30
21199;DHT22;10757;51.038;3.712;2022-07-23T14:54:36;30.70;90.40
21199;DHT22;10757;51.038;3.712;2022-07-23T14:57:02;30.70;90.00
21199;DHT22;10757;51.038;3.712;2022-07-23T14:59:28;30.50;90.40
21199;DHT22;10757;51.038;3.712;2022-07-23T15:01:56;30.60;90.20
21199;DHT22;10757;51.038;3.712;2022-07-23T15:04:22;30.50;90.20
21199;DHT22;10757;51.038;3.712;2022-07-23T15:06:48;30.70;90.10
21199;DHT22;10757;51.038;3.712;2022-07-23T15:09:14;30.60;90.00
21199;DHT22;10757;51.038;3.712;2022-07-23T15:11:40;30.20;90.30
21199;DHT22;10757;51.038;3.712;2022-07-23T15:14:07;30.40;90.10
21199;DHT22;10757;51.038;3.712;2022-07-23T15:16:34;30.40;90.20
21199;DHT22;10757;51.038;3.712;2022-07-23T15:19:00;30.50;90.00
21199;DHT22;10757;51.038;3.712;2022-07-23T15:21:28;30.10;90.60
21199;DHT22;10757;51.038;3.712;2022-07-23T15:23:57;30.00;90.30
21199;DHT22;10757;51.038;3.712;2022-07-23T15:26:27;29.70;90.90
21199;DHT22;10757;51.038;3.712;2022-07-23T15:28:56;29.40;91.60
21199;DHT22;10757;51.038;3.712;2022-07-23T15:31:24;29.50;91.50
21199;DHT22;10757;51.038;3.712;2022-07-23T15:33:50;29.70;91.40
21199;DHT22;10757;51.038;3.712;2022-07-23T15:36:18;30.00;90.70
21199;DHT22;10757;51.038;3.712;2022-07-23T15:38:44;29.90;90.60
21199;DHT22;10757;51.038;3.712;2022-07-23T15:41:10;29.60;91.00
21199;DHT22;10757;51.038;3.712;2022-07-23T15:43:36;29.50;91.20
21199;DHT22;10757;51.038;3.712;2022-07-23T15:46:02;29.80;91.20
21199;DHT22;10757;51.038;3.712;2022-07-23T15:48:28;30.00;90.50
21199;DHT22;10757;51.038;3.712;2022-07-23T15:50:54;30.10;90.70
21199;DHT22;10757;51.038;3.712;2022-07-23T15:53:20;30.30;90.70
21199;DHT22;10757;51.038;3.712;2022-07-23T15:55:46;30.80;90.00
21199;DHT22;10757;51.038;3.712;2022-07-23T15:58:13;30.80;88.90
21199;DHT22;10757;51.038;3.712;2022-07-23T16:00:39;30.70;89.40
21199;DHT22;10757;51.038;3.712;2022-07-23T16:03:05;30.40;88.80
21199;DHT22;10757;51.038;3.712;2022-07-23T16:05:31;30.10;89.90
21199;DHT22;10757;51.038;3.712;2022-07-23T16:08:03;30.00;90.10
21199;DHT22;10757;51.038;3.712;2022-07-23T16:10:35;29.90;90.50
21199;DHT22;10757;51.038;3.712;2022-07-23T16:13:01;30.20;90.30
21199;DHT22;10757;51.038;3.712;2022-07-23T16:15:27;30.60;89.50
21199;DHT22;10757;51.038;3.712;2022-07-23T16:17:55;31.10;88.00
21199;DHT22;10757;51.038;3.712;2022-07-23T16:20:21;31.60;86.90
21199;DHT22;10757;51.038;3.712;2022-07-23T16:22:47;32.20;85.10